Aérodrome :
LOGIN :

S'inscrire | Disclaimer

   EN    FR    IT 

 










Légende :    VFR   VFR Marginal   IFR   IFR Intensif   IFR Très Intensif
Visi : 
Plafond : 
>= 8 km
>= 3000ft
5 à 8 km
1000 à 3000 ft
1500m à 5 km
500 à 1000 ft
800 à 1500m
200 à 500 ft
< 800m
< 200 ft
Symboles :   Orages  Brouillard  Fortes neiges  Fortes précipitations  Vent > 20 kt
SIGMETs :   Divers  Orages  Givrage  Turbulence  Onde Orograph.  Cendres Volcan.






- Altitude de l'aérodrome : 645 ft
- Code IATA : DLE


LFGJ - Dole Tavaux

DERNIER METAR :
  • 061800Z AUTO 18005KT 9999 RA SCT008/// BKN049/// BKN064/// ///TCU 14/13 Q1006

METARs EXPIRÉS :
  • 061730Z AUTO 19006KT 9999 -RA SCT008/// SCT015/// BKN058/// ///TCU 15/14 Q1006
  • 061700Z AUTO 18005KT 9999 -RA FEW014 BKN054 OVC068 15/13 Q1006 TEMPO 4000 RA FEW025TCU
  • 061630Z AUTO 24007KT 9999 -RA ///TCU 15/13 Q1006 TEMPO 4000 RA BKN014
  • 061600Z AUTO 25006KT 9999 -RA FEW010 BKN066 OVC076 15/13 Q1006 TEMPO 4000 RA FEW025TCU
  • 061530Z AUTO 24007KT 9999 RA FEW014/// OVC074/// ///TCU 15/13 Q1006 TEMPO 4000 RA BKN014

TAF TAF LFGJ
Valide du 06 à 15h jusqu'au 07 à 00h UTC


061400Z 0615/0624 21012KT 9999 SCT020 BKN040
TEMPO 0615/0621 -SHRA FEW025TCU
PROB30
TEMPO 0615/0618 4000 RA BKN014



MET'MAP, la Météo Aéronautique d'un coup d'oeil ! - Copyright ORBIFLY Décembre 2007 - Disclaimer

ORBIFLY MET'MAP TEAM :

Programmation & Développement : Alexandra Zaïnal
Sur une idée originale de : Baudouin d'Aumeries
Assistance à la programmation : Marc-Olivier Méhu
Soutien technique & logistique : Manuel Goepfert

Contact : metmap@orbifly.com




SOURCES & CREDITS :

   NOAA